Time;durP1;ratioP1;P1;durP2;ratioP2;P2;SDS_P1;SDS_P2;PMS_P1;PMS_P2;Temp;Humidity;BMP_temperature;BMP_pressure;BME280_temperature;BME280_humidity;BME280_pressure;Samples;Min_cycle;Max_cycle;Signal;HPM_P1;HPM_P2
2022/07/10 00:00:13;;;;;;;11.20;10.00;;;;;;;14.72;100.00;99035.34;105208;1268;63162;-74
2022/07/10 00:02:59;;;;;;;10.70;9.70;;;;;;;14.66;100.00;99032.38;105197;1268;75744;-74
2022/07/10 00:05:26;;;;;;;10.60;9.30;;;;;;;14.62;100.00;99028.98;105188;1268;61301;-74
2022/07/10 00:07:52;;;;;;;11.20;10.10;;;;;;;14.58;100.00;99025.56;105202;1268;61185;-75
2022/07/10 00:10:18;;;;;;;10.80;9.80;;;;;;;14.56;100.00;99023.98;104967;1271;61879;-74
2022/07/10 00:12:46;;;;;;;12.10;10.60;;;;;;;14.54;100.00;99027.52;105196;1268;61370;-75
2022/07/10 00:15:13;;;;;;;11.10;10.00;;;;;;;14.52;100.00;99025.68;105230;1268;61341;-74
2022/07/10 00:17:40;;;;;;;11.50;10.30;;;;;;;14.52;100.00;99022.14;105272;1268;61919;-73
2022/07/10 00:20:08;;;;;;;10.90;9.80;;;;;;;14.52;100.00;99019.82;105038;1269;61391;-75
2022/07/10 00:22:34;;;;;;;11.20;10.10;;;;;;;14.51;100.00;99019.14;104978;1268;75136;-74
2022/07/10 00:25:02;;;;;;;12.60;9.80;;;;;;;14.50;100.00;99014.55;104979;1271;61285;-73
2022/07/10 00:27:29;;;;;;;11.70;10.50;;;;;;;14.50;100.00;99012.27;105261;1268;73496;-73
2022/07/10 00:29:55;;;;;;;10.90;9.80;;;;;;;14.49;100.00;99007.46;105328;1268;61293;-74
2022/07/10 00:32:20;;;;;;;11.90;10.00;;;;;;;14.48;100.00;99005.59;105220;1268;61458;-76
2022/07/10 00:34:47;;;;;;;10.80;9.80;;;;;;;14.47;100.00;99007.84;104967;1272;61355;-74
2022/07/10 00:37:13;;;;;;;10.90;9.90;;;;;;;14.46;100.00;99005.07;105213;1268;61355;-74
2022/07/10 00:39:39;;;;;;;10.70;9.60;;;;;;;14.45;100.00;99001.77;105159;1268;61266;-73
2022/07/10 00:42:10;;;;;;;10.20;9.20;;;;;;;14.46;100.00;98999.02;105186;1268;61365;-75
2022/07/10 00:44:36;;;;;;;11.10;10.00;;;;;;;14.47;100.00;98997.29;105227;1268;61328;-73
2022/07/10 00:47:04;;;;;;;10.60;9.70;;;;;;;14.50;100.00;98995.28;104937;1268;75065;-74
2022/07/10 00:49:35;;;;;;;10.50;9.50;;;;;;;14.53;100.00;98993.83;105221;1268;69294;-74
2022/07/10 00:52:11;;;;;;;10.50;9.50;;;;;;;14.55;100.00;98985.23;105201;1268;74213;-75
2022/07/10 00:54:39;;;;;;;11.10;10.10;;;;;;;14.57;100.00;98986.90;104933;1268;61459;-74
2022/07/10 00:57:06;;;;;;;11.10;9.90;;;;;;;14.58;100.00;98983.55;105218;1268;61263;-73
2022/07/10 00:59:33;;;;;;;10.30;9.30;;;;;;;14.60;100.00;98982.11;105210;1268;76539;-73
2022/07/10 01:02:00;;;;;;;10.20;9.30;;;;;;;14.63;100.00;98981.55;105035;1268;70853;-74
2022/07/10 01:04:27;;;;;;;11.20;8.90;;;;;;;14.63;100.00;98976.70;105235;1268;73263;-76
2022/07/10 01:06:52;;;;;;;9.70;8.80;;;;;;;14.64;100.00;98976.08;105227;1268;61508;-73
2022/07/10 01:09:18;;;;;;;9.90;8.70;;;;;;;14.65;100.00;98971.21;105177;1268;61325;-75
2022/07/10 01:11:45;;;;;;;9.10;8.10;;;;;;;14.65;100.00;98970.67;105207;1268;61330;-73
2022/07/10 01:14:12;;;;;;;9.50;8.40;;;;;;;14.65;100.00;98970.27;105241;1268;61384;-74
2022/07/10 01:16:38;;;;;;;9.20;8.40;;;;;;;14.65;100.00;98969.38;105182;1268;61325;-74
2022/07/10 01:19:06;;;;;;;10.00;9.10;;;;;;;14.66;100.00;98968.56;105152;1268;61299;-74
2022/07/10 01:21:34;;;;;;;10.20;9.30;;;;;;;14.68;100.00;98966.80;105210;1268;61357;-74
2022/07/10 01:24:04;;;;;;;9.80;8.60;;;;;;;14.69;100.00;98961.86;105224;1266;75200;-74
2022/07/10 01:26:31;;;;;;;9.30;8.40;;;;;;;14.70;100.00;98958.25;105299;1268;68285;-74
2022/07/10 01:28:57;;;;;;;9.60;8.60;;;;;;;14.71;100.00;98956.32;105205;1268;61345;-74
2022/07/10 01:31:27;;;;;;;9.10;8.20;;;;;;;14.74;100.00;98955.06;105180;1268;61355;-74
2022/07/10 01:33:54;;;;;;;8.40;7.60;;;;;;;14.74;100.00;98955.42;105252;1268;62003;-74
2022/07/10 01:36:21;;;;;;;10.90;8.60;;;;;;;14.75;100.00;98955.34;105205;1268;75508;-74
2022/07/10 01:38:50;;;;;;;8.60;7.80;;;;;;;14.75;100.00;98947.96;105244;1268;69365;-73
2022/07/10 01:41:16;;;;;;;8.50;7.70;;;;;;;14.76;100.00;98945.56;105367;1268;74352;-74
2022/07/10 01:43:44;;;;;;;8.40;7.20;;;;;;;14.76;100.00;98942.13;104968;1269;61388;-74
2022/07/10 01:46:12;;;;;;;8.60;6.90;;;;;;;14.76;100.00;98940.52;105217;1268;61354;-73
2022/07/10 01:48:38;;;;;;;8.90;7.60;;;;;;;14.76;100.00;98935.15;104961;1268;76192;-75
2022/07/10 01:51:06;;;;;;;7.80;6.70;;;;;;;14.78;100.00;98937.37;105234;1268;70496;-75
2022/07/10 01:53:32;;;;;;;8.90;7.80;;;;;;;14.79;100.00;98934.91;105198;1268;74623;-75
2022/07/10 01:56:00;;;;;;;8.40;7.50;;;;;;;14.81;100.00;98935.13;105171;1268;61476;-75
2022/07/10 01:58:26;;;;;;;11.20;8.70;;;;;;;14.83;100.00;98932.23;105217;1268;61239;-74
2022/07/10 02:00:52;;;;;;;8.40;7.40;;;;;;;14.85;100.00;98932.48;105192;1268;61240;-74
2022/07/10 02:06:03;;;;;;;10.90;9.50;;;;;;;14.87;100.00;98925.11;105204;1268;73241;-75
2022/07/10 02:08:29;;;;;;;12.70;9.60;;;;;;;14.87;100.00;98919.92;105193;1268;61279;-75
2022/07/10 02:10:55;;;;;;;10.50;8.90;;;;;;;14.88;100.00;98920.40;105217;1268;61383;-75
2022/07/10 02:13:24;;;;;;;9.20;7.30;;;;;;;14.88;100.00;98922.20;104910;1268;61460;-75
2022/07/10 02:15:50;;;;;;;9.60;7.20;;;;;;;14.87;100.00;98919.52;105234;1268;68170;-75
2022/07/10 02:18:16;;;;;;;7.30;6.40;;;;;;;14.89;100.00;98915.83;105208;1268;61387;-75
2022/07/10 02:20:42;;;;;;;7.00;5.60;;;;;;;14.89;100.00;98918.31;105008;1268;61550;-75
2022/07/10 02:23:08;;;;;;;8.80;8.00;;;;;;;14.88;100.00;98917.50;105206;1268;61140;-75
2022/07/10 02:25:34;;;;;;;9.40;7.70;;;;;;;14.87;100.00;98916.15;105202;1268;61347;-75
2022/07/10 02:28:01;;;;;;;8.70;7.80;;;;;;;14.87;100.00;98919.00;105232;1268;61380;-75
2022/07/10 02:30:27;;;;;;;9.50;8.50;;;;;;;14.87;100.00;98914.02;105192;1268;63055;-74
2022/07/10 02:32:52;;;;;;;10.60;9.00;;;;;;;14.88;100.00;98910.55;105190;1268;61293;-75
2022/07/10 02:35:19;;;;;;;11.60;8.80;;;;;;;14.87;100.00;98908.98;105239;1268;61355;-75
2022/07/10 02:37:45;;;;;;;11.00;7.50;;;;;;;14.87;100.00;98907.62;105173;1268;70267;-75
2022/07/10 02:40:11;;;;;;;10.10;7.50;;;;;;;14.86;100.00;98907.98;105207;1268;61390;-75
2022/07/10 02:42:37;;;;;;;10.50;7.70;;;;;;;14.85;100.00;98903.63;105215;1268;61360;-74
2022/07/10 02:45:05;;;;;;;14.40;10.40;;;;;;;14.85;100.00;98903.47;105182;1268;61492;-74
2022/07/10 02:47:30;;;;;;;12.20;9.00;;;;;;;14.85;100.00;98902.95;105171;1268;61333;-72
2022/07/10 02:49:57;;;;;;;14.30;8.70;;;;;;;14.84;100.00;98898.56;105206;1268;61346;-73
2022/07/10 02:52:23;;;;;;;14.70;9.60;;;;;;;14.82;100.00;98897.96;105208;1267;61263;-76
2022/07/10 02:54:50;;;;;;;12.70;8.70;;;;;;;14.82;100.00;98898.69;105222;1268;61283;-74
2022/07/10 02:57:17;;;;;;;12.30;8.10;;;;;;;14.82;100.00;98900.70;105186;1268;61377;-74
2022/07/10 02:59:43;;;;;;;11.60;7.80;;;;;;;14.81;100.00;98898.94;105199;1268;61323;-75
2022/07/10 03:02:08;;;;;;;10.50;6.80;;;;;;;14.82;100.00;98895.30;105235;1268;61264;-74
2022/07/10 03:04:35;;;;;;;10.80;6.50;;;;;;;14.82;100.00;98898.39;105218;1268;61725;-74
2022/07/10 03:07:01;;;;;;;10.40;7.10;;;;;;;14.81;100.00;98895.79;105223;1268;61388;-74
2022/07/10 03:09:27;;;;;;;9.70;7.60;;;;;;;14.80;100.00;98896.96;105230;1268;61376;-74
2022/07/10 03:11:53;;;;;;;10.10;7.90;;;;;;;14.79;100.00;98895.94;105238;1268;61234;-75
2022/07/10 03:14:19;;;;;;;10.80;7.90;;;;;;;14.80;100.00;98898.21;105013;1268;61389;-75
2022/07/10 03:16:45;;;;;;;9.10;7.90;;;;;;;14.79;100.00;98894.52;105264;1268;61288;-77
2022/07/10 03:19:12;;;;;;;10.40;8.20;;;;;;;14.79;100.00;98892.35;105218;1268;61336;-74
2022/07/10 03:21:38;;;;;;;8.00;7.20;;;;;;;14.80;100.00;98887.45;105250;1268;76420;-74
2022/07/10 03:24:04;;;;;;;10.30;6.50;;;;;;;14.80;100.00;98888.16;105212;1268;61384;-74
2022/07/10 03:26:30;;;;;;;9.20;7.40;;;;;;;14.81;100.00;98891.70;105167;1268;61321;-73
2022/07/10 03:28:56;;;;;;;8.70;6.60;;;;;;;14.80;100.00;98892.96;105222;1266;61294;-73
2022/07/10 03:31:22;;;;;;;8.70;6.30;;;;;;;14.81;100.00;98890.39;105199;1268;61281;-73
2022/07/10 03:33:49;;;;;;;7.40;5.40;;;;;;;14.83;100.00;98885.23;105204;1268;61294;-75
2022/07/10 03:36:14;;;;;;;5.40;4.60;;;;;;;14.84;100.00;98885.35;105208;1268;61422;-73
2022/07/10 03:38:41;;;;;;;6.20;5.60;;;;;;;14.84;100.00;98886.56;105207;1268;61271;-74
2022/07/10 03:41:07;;;;;;;7.00;5.50;;;;;;;14.86;100.00;98886.95;105212;1268;61371;-74
2022/07/10 03:43:33;;;;;;;9.00;6.70;;;;;;;14.87;100.00;98891.13;105245;1268;61368;-75
2022/07/10 03:45:59;;;;;;;6.40;5.80;;;;;;;14.90;100.00;98885.90;104940;1269;67741;-74
2022/07/10 03:48:25;;;;;;;5.30;4.80;;;;;;;14.93;100.00;98881.68;105181;1268;61383;-74
2022/07/10 03:50:52;;;;;;;6.80;4.70;;;;;;;14.97;100.00;98877.83;105215;1268;61395;-74
2022/07/10 03:53:18;;;;;;;5.30;4.80;;;;;;;14.97;100.00;98874.15;104978;1268;61357;-75
2022/07/10 03:55:45;;;;;;;6.20;4.70;;;;;;;14.99;100.00;98873.50;105296;1268;61348;-74
2022/07/10 03:58:12;;;;;;;7.80;5.70;;;;;;;15.00;100.00;98873.23;104991;1268;61329;-74
2022/07/10 04:00:38;;;;;;;5.40;4.10;;;;;;;15.02;100.00;98880.36;105204;1268;61380;-74
2022/07/10 04:03:06;;;;;;;5.40;4.90;;;;;;;15.05;100.00;98879.52;105198;1268;61355;-74
2022/07/10 04:05:32;;;;;;;5.00;4.60;;;;;;;15.09;100.00;98878.34;105174;1268;62291;-73
2022/07/10 04:07:59;;;;;;;5.90;4.20;;;;;;;15.12;100.00;98881.77;105314;1268;74624;-75
2022/07/10 04:10:27;;;;;;;5.90;4.70;;;;;;;15.17;100.00;98875.69;105185;1266;69112;-74
2022/07/10 04:12:54;;;;;;;6.90;4.70;;;;;;;15.20;100.00;98875.89;105327;1267;74431;-74
2022/07/10 04:15:20;;;;;;;5.40;4.80;;;;;;;15.26;100.00;98874.51;105224;1268;61326;-75
2022/07/10 04:17:48;;;;;;;5.40;4.70;;;;;;;15.33;100.00;98878.85;105047;1268;61431;-73
2022/07/10 04:20:15;;;;;;;7.60;4.50;;;;;;;15.40;100.00;98883.48;105063;1268;76294;-75
2022/07/10 04:22:41;;;;;;;7.10;4.50;;;;;;;15.44;100.00;98884.20;105484;1268;69409;-74
2022/07/10 04:25:08;;;;;;;5.10;4.60;;;;;;;15.47;100.00;98875.64;105468;1268;61182;-74
2022/07/10 04:27:35;;;;;;;4.50;4.10;;;;;;;15.54;100.00;98876.33;106113;1268;61271;-75
2022/07/10 04:30:01;;;;;;;6.20;4.10;;;;;;;15.61;100.00;98872.41;106009;1268;61669;-74
2022/07/10 04:32:27;;;;;;;5.40;4.50;;;;;;;15.72;100.00;98873.09;105575;1268;61381;-74
2022/07/10 04:34:54;;;;;;;4.50;4.20;;;;;;;15.90;100.00;98873.68;104974;1268;61555;-76
2022/07/10 04:37:20;;;;;;;4.60;3.90;;;;;;;16.18;100.00;98874.95;105180;1268;61364;-74
2022/07/10 04:39:47;;;;;;;4.10;3.70;;;;;;;16.22;100.00;98872.13;104995;1271;61524;-74
2022/07/10 04:42:12;;;;;;;5.00;3.90;;;;;;;16.20;100.00;98878.23;105227;1268;61258;-74
2022/07/10 04:44:39;;;;;;;4.30;3.90;;;;;;;16.17;100.00;98874.73;105207;1268;61281;-74
2022/07/10 04:47:06;;;;;;;5.10;4.60;;;;;;;16.11;100.00;98876.06;105216;1268;64687;-73
2022/07/10 04:49:33;;;;;;;4.50;4.10;;;;;;;15.97;100.00;98880.34;105169;1266;61400;-74
2022/07/10 04:51:59;;;;;;;4.60;3.90;;;;;;;15.83;100.00;98878.44;105170;1268;61301;-73
2022/07/10 04:54:26;;;;;;;4.20;3.80;;;;;;;15.83;100.00;98879.83;104953;1268;61295;-76
2022/07/10 04:56:52;;;;;;;5.80;4.30;;;;;;;16.07;100.00;98881.20;105256;1268;61358;-76
2022/07/10 04:59:18;;;;;;;4.90;4.20;;;;;;;16.17;100.00;98880.36;105177;1268;61329;-73
2022/07/10 05:01:44;;;;;;;5.60;4.60;;;;;;;16.17;100.00;98878.55;105197;1268;61780;-74
2022/07/10 05:04:11;;;;;;;5.20;3.90;;;;;;;16.17;100.00;98883.67;105183;1268;61254;-75
2022/07/10 05:06:37;;;;;;;4.30;4.00;;;;;;;16.20;100.00;98883.23;105244;1268;61356;-75
2022/07/10 05:09:04;;;;;;;4.90;4.40;;;;;;;16.25;100.00;98881.16;105193;1268;61282;-73
2022/07/10 05:11:31;;;;;;;5.50;4.10;;;;;;;16.22;100.00;98881.48;105181;1268;61355;-74
2022/07/10 05:13:58;;;;;;;4.90;4.20;;;;;;;16.13;100.00;98881.38;105206;1268;61284;-74
2022/07/10 05:16:24;;;;;;;5.00;4.50;;;;;;;16.09;100.00;98883.88;105175;1267;61395;-75
2022/07/10 05:18:50;;;;;;;4.60;4.20;;;;;;;16.07;100.00;98888.77;105192;1268;62410;-74
2022/07/10 05:21:16;;;;;;;4.60;4.20;;;;;;;16.02;100.00;98888.80;105193;1268;62722;-74
2022/07/10 05:23:43;;;;;;;4.90;4.50;;;;;;;16.00;100.00;98888.45;105191;1268;61371;-74
2022/07/10 05:26:09;;;;;;;5.00;4.50;;;;;;;15.96;100.00;98887.94;104925;1269;61392;-74
2022/07/10 05:28:36;;;;;;;5.10;4.70;;;;;;;15.93;100.00;98885.70;105244;1268;61448;-74
2022/07/10 05:31:02;;;;;;;4.70;4.30;;;;;;;15.94;100.00;98891.02;105202;1268;61387;-74
2022/07/10 05:33:28;;;;;;;5.50;5.00;;;;;;;15.96;100.00;98893.51;104896;1268;61285;-74
2022/07/10 05:35:55;;;;;;;5.60;4.30;;;;;;;16.10;100.00;98891.94;104816;1268;61438;-74
2022/07/10 05:38:21;;;;;;;5.40;4.50;;;;;;;16.36;100.00;98895.42;105205;1268;61480;-74
2022/07/10 05:40:48;;;;;;;4.50;4.10;;;;;;;16.71;100.00;98893.99;105158;1269;61384;-74
2022/07/10 05:43:14;;;;;;;4.00;3.70;;;;;;;17.00;100.00;98899.84;104959;1268;61458;-75
2022/07/10 05:45:41;;;;;;;3.70;3.40;;;;;;;17.10;100.00;98901.96;105189;1268;61243;-75
2022/07/10 05:48:07;;;;;;;3.50;3.20;;;;;;;17.33;100.00;98895.25;105039;1268;61454;-73
2022/07/10 05:50:33;;;;;;;4.00;2.70;;;;;;;17.60;98.70;98891.38;105127;1268;61358;-74
2022/07/10 05:52:59;;;;;;;4.80;2.70;;;;;;;17.84;94.52;98883.45;105231;1268;61384;-74
2022/07/10 05:55:25;;;;;;;2.60;2.40;;;;;;;18.31;91.65;98891.02;105253;1268;75787;-74
2022/07/10 05:57:51;;;;;;;3.20;2.50;;;;;;;18.68;90.04;98885.46;105200;1268;59884;-74
2022/07/10 06:00:17;;;;;;;3.50;2.60;;;;;;;19.13;87.09;98883.39;105205;1268;61294;-74
2022/07/10 06:02:43;;;;;;;2.30;2.20;;;;;;;19.10;83.97;98882.04;105221;1268;61482;-74
2022/07/10 06:05:09;;;;;;;2.30;2.20;;;;;;;18.97;82.59;98886.27;105212;1268;61852;-74
2022/07/10 06:07:36;;;;;;;3.30;2.50;;;;;;;19.25;81.06;98886.10;105184;1268;61310;-74
2022/07/10 06:10:07;;;;;;;2.50;2.30;;;;;;;19.76;78.53;98880.84;105203;1268;61380;-74
2022/07/10 06:12:33;;;;;;;1.70;1.60;;;;;;;20.49;76.82;98880.56;105032;1274;74131;-73
2022/07/10 06:14:59;;;;;;;1.80;1.60;;;;;;;21.27;72.00;98873.90;104907;1274;61513;-74
2022/07/10 06:17:25;;;;;;;1.90;1.70;;;;;;;20.96;71.67;98874.59;104884;1274;61291;-75
2022/07/10 06:19:51;;;;;;;2.10;1.60;;;;;;;20.42;72.33;98877.89;104878;1274;61199;-75
2022/07/10 06:22:30;;;;;;;2.60;1.40;;;;;;;19.83;71.18;98881.63;104568;1274;63089;-74
2022/07/10 06:25:01;;;;;;;6.50;2.90;;;;;;;19.01;71.81;98882.48;104907;1272;74526;-74
2022/07/10 06:27:27;;;;;;;1.70;1.60;;;;;;;18.45;74.09;98882.02;105008;1274;61489;-75
2022/07/10 06:29:53;;;;;;;1.90;1.70;;;;;;;18.21;74.70;98882.33;104916;1274;61192;-75
2022/07/10 06:32:20;;;;;;;1.90;1.80;;;;;;;18.53;73.44;98876.53;104908;1274;61382;-75
2022/07/10 06:34:45;;;;;;;3.00;1.50;;;;;;;19.26;72.86;98876.54;104894;1274;61300;-75
2022/07/10 06:37:12;;;;;;;1.50;1.40;;;;;;;20.12;70.48;98873.35;104920;1274;61342;-74
2022/07/10 06:39:38;;;;;;;1.50;1.40;;;;;;;20.54;68.14;98878.98;104911;1273;61265;-75
2022/07/10 06:42:07;;;;;;;1.20;1.20;;;;;;;20.39;68.12;98881.82;104657;1274;61458;-74
2022/07/10 06:44:34;;;;;;;3.00;1.30;;;;;;;20.48;66.64;98882.49;104945;1274;76203;-74
2022/07/10 06:49:49;;;;;;;2.90;1.30;;;;;;;20.63;64.32;98876.71;104986;1268;73521;-74
2022/07/10 06:52:15;;;;;;;1.50;1.40;;;;;;;21.17;61.60;98875.02;105266;1268;61342;-74
2022/07/10 06:54:42;;;;;;;1.50;1.40;;;;;;;20.99;59.37;98874.89;105240;1268;61287;-74
2022/07/10 06:57:08;;;;;;;2.60;1.50;;;;;;;20.39;62.25;98874.48;105248;1268;74296;-73
2022/07/10 06:59:34;;;;;;;1.90;1.10;;;;;;;19.97;63.71;98873.80;105246;1268;61379;-74
2022/07/10 07:02:01;;;;;;;1.80;1.20;;;;;;;19.63;64.17;98880.98;105222;1268;61269;-73
2022/07/10 07:04:27;;;;;;;1.70;1.20;;;;;;;19.40;65.15;98880.34;105223;1268;61310;-75
2022/07/10 07:06:53;;;;;;;1.10;1.10;;;;;;;19.48;65.45;98876.81;105234;1268;61259;-74
2022/07/10 07:09:19;;;;;;;2.60;1.20;;;;;;;19.60;63.83;98877.04;105220;1268;61157;-75
2022/07/10 07:11:45;;;;;;;1.80;1.20;;;;;;;20.21;62.65;98875.36;105222;1268;61249;-73
2022/07/10 07:14:13;;;;;;;2.20;1.20;;;;;;;20.84;60.37;98869.30;105112;1268;61293;-73
2022/07/10 07:16:42;;;;;;;3.40;1.40;;;;;;;20.96;61.26;98870.71;104985;1268;61363;-73
2022/07/10 07:19:17;;;;;;;4.80;1.50;;;;;;;20.93;62.26;98875.22;104999;1271;62087;-73
2022/07/10 07:24:28;;;;;;;3.30;1.30;;;;;;;20.69;60.86;98881.13;105221;1268;70239;-74
2022/07/10 07:26:54;;;;;;;2.10;1.30;;;;;;;20.48;60.31;98878.70;104921;1269;61306;-77
2022/07/10 07:29:21;;;;;;;2.20;1.00;;;;;;;20.21;60.38;98880.70;105031;1268;61303;-75
2022/07/10 07:31:47;;;;;;;1.60;1.00;;;;;;;20.11;60.55;98882.48;105195;1268;61208;-76
2022/07/10 07:34:13;;;;;;;1.80;1.50;;;;;;;20.11;60.65;98881.03;105244;1268;61265;-76
2022/07/10 07:36:39;;;;;;;1.80;1.30;;;;;;;20.00;59.60;98885.04;105236;1268;61246;-74
2022/07/10 07:39:05;;;;;;;4.30;1.50;;;;;;;19.88;60.16;98883.03;105233;1268;61194;-75
2022/07/10 07:41:31;;;;;;;2.80;1.30;;;;;;;20.15;60.58;98889.52;105248;1268;61308;-74
2022/07/10 07:43:57;;;;;;;2.30;1.30;;;;;;;20.30;58.03;98889.65;105180;1268;61174;-75
2022/07/10 07:46:25;;;;;;;2.50;1.30;;;;;;;20.49;58.25;98890.31;105204;1268;61280;-74
2022/07/10 07:48:51;;;;;;;1.70;1.20;;;;;;;20.82;57.31;98887.23;105212;1268;61380;-74
2022/07/10 07:51:17;;;;;;;3.00;1.10;;;;;;;20.97;58.29;98891.33;105228;1268;61402;-74
2022/07/10 07:53:43;;;;;;;1.90;1.40;;;;;;;21.08;55.57;98889.24;105210;1268;61277;-76
2022/07/10 07:56:09;;;;;;;2.90;1.10;;;;;;;20.89;55.45;98892.93;105239;1268;61386;-76
2022/07/10 07:58:36;;;;;;;3.30;1.20;;;;;;;21.06;56.14;98886.58;105290;1268;61530;-77
2022/07/10 08:01:02;;;;;;;2.30;1.40;;;;;;;21.21;55.73;98885.17;105273;1268;74361;-74
2022/07/10 08:03:28;;;;;;;4.30;1.20;;;;;;;21.13;55.34;98889.59;105269;1268;61265;-75
2022/07/10 08:05:54;;;;;;;2.00;1.20;;;;;;;21.06;54.97;98895.41;105157;1271;61345;-74
2022/07/10 08:08:20;;;;;;;2.50;1.00;;;;;;;20.90;54.26;98899.39;105223;1268;61389;-74
2022/07/10 08:10:46;;;;;;;2.60;1.70;;;;;;;20.73;52.86;98901.04;105263;1268;61246;-74
2022/07/10 08:13:13;;;;;;;2.90;1.40;;;;;;;20.64;53.50;98899.76;105319;1268;61375;-73
2022/07/10 08:15:39;;;;;;;1.30;1.00;;;;;;;20.56;52.78;98902.96;105297;1268;61368;-76
2022/07/10 08:18:07;;;;;;;2.10;0.90;;;;;;;20.69;53.96;98902.39;105285;1267;61284;-74
2022/07/10 08:20:35;;;;;;;1.80;0.90;;;;;;;21.18;53.31;98895.86;105311;1268;75267;-74
2022/07/10 08:23:01;;;;;;;2.40;1.00;;;;;;;21.46;53.28;98895.36;105224;1268;61284;-73
2022/07/10 08:25:29;;;;;;;1.40;0.80;;;;;;;21.49;51.93;98894.30;105216;1268;61360;-75
2022/07/10 08:28:05;;;;;;;3.40;1.00;;;;;;;21.40;52.20;98897.73;105125;1268;61351;-74
2022/07/10 08:30:32;;;;;;;1.60;1.00;;;;;;;21.43;53.25;98896.46;105312;1268;62051;-74
2022/07/10 08:32:58;;;;;;;1.70;1.00;;;;;;;21.50;52.52;98896.09;105188;1269;75555;-74
2022/07/10 08:35:25;;;;;;;3.80;1.90;;;;;;;21.21;51.63;98902.52;105279;1268;61281;-74
2022/07/10 08:37:51;;;;;;;2.20;1.10;;;;;;;20.76;52.46;98904.08;105306;1268;61229;-75
2022/07/10 08:40:18;;;;;;;2.60;1.30;;;;;;;20.44;53.21;98911.56;105331;1268;61278;-73
2022/07/10 08:42:45;;;;;;;2.50;1.10;;;;;;;20.37;53.53;98910.20;105264;1268;61163;-74
2022/07/10 08:45:16;;;;;;;2.30;0.80;;;;;;;20.50;53.21;98913.88;105224;1268;75580;-75
2022/07/10 08:47:44;;;;;;;2.60;1.10;;;;;;;20.75;52.28;98910.95;105235;1268;69420;-73
2022/07/10 08:50:24;;;;;;;5.00;1.00;;;;;;;20.84;50.31;98908.10;105266;1268;73746;-73
2022/07/10 08:53:06;;;;;;;2.00;0.90;;;;;;;20.70;51.18;98909.50;105243;1268;61179;-73
2022/07/10 08:55:33;;;;;;;2.00;1.00;;;;;;;20.56;51.99;98907.10;105231;1268;62311;-74
2022/07/10 08:57:59;;;;;;;5.20;1.50;;;;;;;20.65;52.19;98910.98;105195;1268;61182;-75
2022/07/10 09:00:25;;;;;;;2.90;1.10;;;;;;;20.77;50.64;98907.80;105211;1266;69888;-73
2022/07/10 09:02:55;;;;;;;2.20;1.00;;;;;;;21.19;50.45;98896.29;105246;1268;73378;-74
2022/07/10 09:05:23;;;;;;;1.70;0.70;;;;;;;21.48;49.76;98896.08;105313;1268;61285;-74
2022/07/10 09:07:49;;;;;;;2.50;1.00;;;;;;;21.64;49.04;98892.86;105273;1268;61352;-74
2022/07/10 09:10:21;;;;;;;2.50;0.80;;;;;;;21.60;49.58;98891.08;105241;1268;76340;-74
2022/07/10 09:12:52;;;;;;;2.00;0.70;;;;;;;21.59;48.27;98893.09;105251;1268;69418;-75
2022/07/10 09:15:21;;;;;;;3.00;1.40;;;;;;;21.56;47.69;98891.57;105316;1266;74191;-74
2022/07/10 09:17:50;;;;;;;;;;;;;;;21.61;47.72;98888.63;105962;1268;61279;-75
2022/07/10 09:20:40;;;;;;;3.80;0.90;;;;;;;21.67;48.10;98887.73;106132;1268;61623;-73
2022/07/10 09:23:19;;;;;;;1.80;0.80;;;;;;;21.73;48.57;98889.33;105581;1271;75314;-74
2022/07/10 09:25:47;;;;;;;3.40;0.90;;;;;;;21.73;48.25;98892.35;105206;1268;69258;-75
2022/07/10 09:28:20;;;;;;;4.60;1.10;;;;;;;21.61;47.41;98889.34;105270;1268;73325;-76
2022/07/10 09:30:46;;;;;;;3.10;0.80;;;;;;;21.61;47.72;98887.21;105005;1268;61300;-74
2022/07/10 09:33:34;;;;;;;1.60;1.10;;;;;;;21.97;47.33;98880.31;105328;1268;61291;-75
2022/07/10 09:36:05;;;;;;;1.70;0.80;;;;;;;21.95;45.21;98881.83;105228;1268;75368;-73
2022/07/10 09:38:44;;;;;;;2.60;0.80;;;;;;;21.67;45.05;98880.66;105247;1268;69277;-74
2022/07/10 09:41:16;;;;;;;4.50;0.90;;;;;;;21.41;45.78;98886.80;105194;1268;73512;-75
2022/07/10 09:44:03;;;;;;;3.50;0.60;;;;;;;21.24;46.74;98890.70;105203;1268;61351;-74
2022/07/10 09:46:38;;;;;;;1.70;0.80;;;;;;;20.86;47.02;98902.17;104766;1269;61473;-74
2022/07/10 09:49:09;;;;;;;2.50;0.60;;;;;;;20.62;47.78;98904.05;105243;1268;74972;-74
2022/07/10 09:51:36;;;;;;;3.50;0.90;;;;;;;20.45;48.36;98908.30;105272;1268;69365;-74
2022/07/10 09:54:05;;;;;;;4.40;1.00;;;;;;;20.35;48.27;98910.02;105251;1268;74303;-73
2022/07/10 09:56:47;;;;;;;1.40;0.60;;;;;;;20.15;47.61;98915.16;105276;1268;61298;-74
2022/07/10 09:59:15;;;;;;;2.40;0.70;;;;;;;19.92;47.32;98916.52;105256;1268;61307;-75
2022/07/10 10:01:49;;;;;;;3.60;1.00;;;;;;;19.72;48.12;98915.23;105003;1269;75360;-76
2022/07/10 10:04:18;;;;;;;2.70;0.90;;;;;;;19.66;48.87;98912.74;104915;1269;69480;-76
2022/07/10 10:06:52;;;;;;;1.40;0.70;;;;;;;19.70;48.95;98911.95;105241;1268;73344;-74
2022/07/10 10:09:25;;;;;;;1.60;0.80;;;;;;;19.71;49.39;98911.00;105235;1268;61374;-75
2022/07/10 10:11:57;;;;;;;2.50;0.80;;;;;;;19.86;49.41;98916.23;105354;1268;61884;-77
2022/07/10 10:14:27;;;;;;;1.30;1.00;;;;;;;19.96;48.49;98913.05;105142;1268;75338;-75
2022/07/10 10:16:55;;;;;;;3.00;1.10;;;;;;;20.02;48.36;98907.52;105244;1268;70375;-75
2022/07/10 10:22:09;;;;;;;3.60;0.70;;;;;;;20.35;47.91;98904.83;105237;1268;61407;-75
2022/07/10 10:24:38;;;;;;;2.40;0.90;;;;;;;20.42;47.49;98900.80;105316;1268;61856;-75
2022/07/10 10:27:06;;;;;;;3.00;0.80;;;;;;;20.64;48.04;98892.97;105176;1269;75828;-74
2022/07/10 10:29:36;;;;;;;2.30;0.80;;;;;;;21.00;47.56;98880.73;105234;1269;69567;-74
2022/07/10 10:32:02;;;;;;;2.90;0.70;;;;;;;21.25;46.45;98884.18;105227;1268;74239;-74
2022/07/10 10:34:44;;;;;;;5.70;1.50;;;;;;;21.29;46.08;98880.73;105235;1268;61144;-74
2022/07/10 10:37:34;;;;;;;4.60;1.00;;;;;;;21.23;44.94;98883.21;105009;1268;61211;-75
2022/07/10 10:40:00;;;;;;;;;;;;;;;21.16;44.24;98881.94;105214;1271;75569;-76
2022/07/10 10:42:37;;;;;;;2.30;0.70;;;;;;;21.14;44.83;98878.26;105188;1271;61371;-74
2022/07/10 10:45:35;;;;;;;2.70;0.70;;;;;;;21.30;44.90;98879.29;105198;1271;73315;-74
2022/07/10 10:48:13;;;;;;;4.30;1.00;;;;;;;21.24;44.27;98878.47;105175;1271;61288;-75
2022/07/10 10:50:53;;;;;;;1.70;0.70;;;;;;;21.32;45.25;98878.71;105260;1271;61217;-74
2022/07/10 10:53:27;;;;;;;4.80;1.00;;;;;;;21.51;45.27;98878.93;104979;1272;76466;-75
2022/07/10 10:56:02;;;;;;;3.10;1.70;;;;;;;21.79;44.59;98880.41;105179;1271;69731;-75
2022/07/10 10:58:37;;;;;;;2.10;0.60;;;;;;;21.60;43.13;98878.67;105129;1271;74550;-74
2022/07/10 11:01:27;;;;;;;2.80;1.10;;;;;;;21.25;43.65;98876.77;105249;1271;61355;-74
2022/07/10 11:04:04;;;;;;;4.60;0.80;;;;;;;20.96;44.37;98880.96;105222;1271;61533;-75
2022/07/10 11:06:50;;;;;;;3.90;1.10;;;;;;;20.84;45.17;98896.02;105214;1271;75511;-73
2022/07/10 11:09:27;;;;;;;3.10;0.90;;;;;;;20.75;45.55;98891.21;105166;1271;70264;-75
2022/07/10 11:12:10;;;;;;;2.40;1.00;;;;;;;20.75;45.02;98887.12;105191;1271;74386;-74
2022/07/10 11:14:39;;;;;;;2.90;1.40;;;;;;;20.66;44.04;98887.93;105293;1271;61387;-74
2022/07/10 11:17:08;;;;;;;2.10;0.70;;;;;;;20.60;43.76;98888.59;105003;1271;62553;-73
2022/07/10 11:19:34;;;;;;;1.80;0.80;;;;;;;20.55;44.63;98884.98;105175;1271;75296;-79
2022/07/10 11:22:32;;;;;;;2.30;0.70;;;;;;;20.62;44.08;98882.99;105183;1271;61269;-73
2022/07/10 11:25:16;;;;;;;2.40;0.90;;;;;;;20.60;43.68;98884.59;104464;1280;73469;-75
2022/07/10 11:28:09;;;;;;;2.30;0.70;;;;;;;20.80;44.16;98877.30;104461;1280;61480;-75
2022/07/10 11:30:52;;;;;;;4.20;0.90;;;;;;;20.91;43.31;98875.23;104517;1280;61197;-75
2022/07/10 11:33:20;;;;;;;1.90;0.60;;;;;;;20.79;42.47;98879.02;104492;1279;76301;-76
2022/07/10 11:35:52;;;;;;;1.70;1.60;;;;;;;20.84;43.58;98873.80;104557;1280;68383;-77